Time;durP1;ratioP1;P1;durP2;ratioP2;P2;SDS_P1;SDS_P2;PMS_P1;PMS_P2;Temp;Humidity;BMP_temperature;BMP_pressure;BME280_temperature;BME280_humidity;BME280_pressure;Samples;Min_cycle;Max_cycle;Signal;HPM_P1;HPM_P2
2020/12/29 00:01:34;;;;;;;31.05;3.13;;;;;;;0.71;82.80;93242.16;5052281;28;20055;-68
2020/12/29 00:04:00;;;;;;;27.63;2.80;;;;;;;0.72;82.18;93241.03;5052884;28;20500;-68
2020/12/29 00:06:26;;;;;;;36.85;3.20;;;;;;;0.76;81.74;93252.66;5052016;28;20562;-68
2020/12/29 00:08:52;;;;;;;27.55;2.85;;;;;;;0.81;81.83;93245.53;5052630;28;20044;-68
2020/12/29 00:11:18;;;;;;;20.92;2.75;;;;;;;0.85;81.49;93259.81;5052095;28;20053;-67
2020/12/29 00:13:44;;;;;;;26.05;2.58;;;;;;;0.80;80.94;93262.72;5051997;28;20083;-68
2020/12/29 00:16:10;;;;;;;44.22;3.45;;;;;;;0.79;80.93;93245.88;5051949;28;20087;-68
2020/12/29 00:18:36;;;;;;;28.42;2.65;;;;;;;0.82;80.99;93258.56;5052528;28;20099;-68
2020/12/29 00:21:02;;;;;;;22.23;2.63;;;;;;;0.83;80.95;93256.69;5051492;28;20106;-69
2020/12/29 00:23:29;;;;;;;34.20;3.08;;;;;;;0.84;80.98;93258.25;5052155;28;20400;-68
2020/12/29 00:25:56;;;;;;;29.70;2.85;;;;;;;0.82;81.05;93257.78;5052254;28;20083;-68
2020/12/29 00:28:22;;;;;;;18.75;2.50;;;;;;;0.80;80.88;93257.34;5051617;28;20056;-68
2020/12/29 00:30:47;;;;;;;32.38;3.30;;;;;;;0.76;81.02;93255.31;5052265;28;20037;-68
2020/12/29 00:33:14;;;;;;;21.58;2.70;;;;;;;0.77;81.09;93256.88;5051368;28;20045;-67
2020/12/29 00:35:39;;;;;;;26.63;3.53;;;;;;;0.78;81.16;93269.19;5052236;28;20041;-68
2020/12/29 00:38:06;;;;;;;23.20;2.80;;;;;;;0.77;81.13;93258.78;5051679;28;20393;-68
2020/12/29 00:40:31;;;;;;;26.08;3.00;;;;;;;0.76;81.18;93257.22;5052059;28;20041;-68
2020/12/29 00:42:58;;;;;;;26.80;3.33;;;;;;;0.73;81.31;93264.03;5051915;28;20076;-68
2020/12/29 00:45:24;;;;;;;21.67;2.88;;;;;;;0.72;81.27;93264.34;5051131;28;20045;-68
2020/12/29 00:47:50;;;;;;;37.63;3.55;;;;;;;0.71;81.22;93268.94;5051772;28;20041;-68
2020/12/29 00:50:16;;;;;;;23.13;3.00;;;;;;;0.69;81.44;93273.84;5051323;28;20053;-68
2020/12/29 00:52:42;;;;;;;40.60;3.75;;;;;;;0.69;81.42;93278.44;5051528;28;20424;-68
2020/12/29 00:55:08;;;;;;;31.92;3.47;;;;;;;0.69;81.55;93279.22;5051303;28;20041;-68
2020/12/29 00:57:34;;;;;;;29.92;3.33;;;;;;;0.71;81.52;93279.66;5051503;28;20048;-68
2020/12/29 01:00:01;;;;;;;20.10;2.75;;;;;;;0.72;81.40;93283.09;5051718;28;20078;-68
2020/12/29 01:02:27;;;;;;;23.30;3.25;;;;;;;0.71;81.60;93285.00;5051444;28;20045;-68
2020/12/29 01:04:52;;;;;;;31.00;3.60;;;;;;;0.71;81.44;93293.03;5051701;28;20122;-68
2020/12/29 01:07:18;;;;;;;36.90;3.47;;;;;;;0.71;81.45;93306.44;5051058;28;20052;-68
2020/12/29 01:09:44;;;;;;;37.75;3.50;;;;;;;0.69;81.31;93316.69;5051667;28;20453;-68
2020/12/29 01:12:10;;;;;;;23.98;3.10;;;;;;;0.71;81.50;93325.16;5051048;28;20409;-69
2020/12/29 01:14:36;;;;;;;26.48;3.10;;;;;;;0.73;81.46;93330.19;5050765;28;20052;-68
2020/12/29 01:17:03;;;;;;;22.45;2.83;;;;;;;0.77;81.38;93333.78;5050908;28;20506;-68
2020/12/29 01:19:29;;;;;;;25.38;2.95;;;;;;;0.77;81.30;93333.78;5051338;28;20041;-68
2020/12/29 01:21:55;;;;;;;28.25;3.05;;;;;;;0.77;81.11;93334.56;5033398;28;20111;-68
2020/12/29 01:24:21;;;;;;;28.65;3.28;;;;;;;0.80;81.00;93327.78;5050670;28;20464;-68
2020/12/29 01:26:47;;;;;;;40.95;3.25;;;;;;;0.85;81.13;93332.16;5051066;28;20048;-68
2020/12/29 01:29:13;;;;;;;27.40;2.95;;;;;;;0.86;81.00;93336.38;5050631;28;20049;-68
2020/12/29 01:31:39;;;;;;;34.20;2.92;;;;;;;0.87;80.72;93335.25;5050909;28;20412;-68
2020/12/29 01:34:06;;;;;;;26.63;2.75;;;;;;;0.89;80.66;93333.03;5049780;28;20040;-68
2020/12/29 01:36:32;;;;;;;31.05;2.70;;;;;;;0.90;80.44;93323.91;5051080;28;20052;-68
2020/12/29 01:38:58;;;;;;;26.27;2.60;;;;;;;0.88;79.88;93326.13;5050870;28;20416;-68
2020/12/29 01:41:24;;;;;;;301.15;13.15;;;;;;;0.94;79.92;93327.47;5046314;28;20048;-68
2020/12/29 01:43:51;;;;;;;33.25;2.97;;;;;;;0.97;79.67;93321.47;5049402;28;20041;-68
2020/12/29 01:46:17;;;;;;;23.55;2.80;;;;;;;1.00;79.62;93326.16;5050589;28;20061;-68
2020/12/29 01:48:44;;;;;;;50.03;3.67;;;;;;;1.02;79.36;93334.63;5045041;28;20052;-68
2020/12/29 01:51:11;;;;;;;28.85;2.42;;;;;;;1.03;79.19;93331.63;5050431;28;20049;-68
2020/12/29 01:53:39;;;;;;;29.42;2.67;;;;;;;1.01;79.11;93317.78;5050903;28;20100;-68
2020/12/29 01:56:08;;;;;;;27.63;2.33;;;;;;;0.97;78.97;93316.88;5050573;28;20048;-68
2020/12/29 01:58:36;;;;;;;25.95;2.35;;;;;;;1.00;78.90;93310.09;5050792;28;20068;-68
2020/12/29 02:01:02;;;;;;;21.05;2.13;;;;;;;1.01;79.17;93322.38;5050200;28;20049;-68
2020/12/29 02:03:28;;;;;;;33.85;2.72;;;;;;;1.01;79.05;93323.16;5050727;28;20045;-68
2020/12/29 02:05:54;;;;;;;19.20;1.98;;;;;;;1.03;79.19;93336.19;5050864;28;20068;-68
2020/12/29 02:08:21;;;;;;;22.00;2.25;;;;;;;1.02;79.21;93329.28;5050234;28;20052;-68
2020/12/29 02:10:47;;;;;;;23.17;2.65;;;;;;;1.04;79.26;93333.22;5050714;28;20045;-68
2020/12/29 02:13:13;;;;;;;23.35;2.33;;;;;;;1.02;79.40;93334.63;5050047;28;20390;-68
2020/12/29 02:15:39;;;;;;;40.55;3.00;;;;;;;0.97;78.96;93324.13;5050335;28;20123;-68
2020/12/29 02:18:05;;;;;;;38.17;2.92;;;;;;;0.99;79.43;93333.44;5049894;28;20040;-68
2020/12/29 02:20:31;;;;;;;32.35;2.83;;;;;;;0.95;79.27;93304.94;5050476;28;20055;-68
2020/12/29 02:22:58;;;;;;;27.05;2.78;;;;;;;0.91;79.53;93326.25;5050525;28;20451;-68
2020/12/29 02:25:24;;;;;;;29.83;2.70;;;;;;;0.90;79.67;93331.94;5050123;28;20052;-68
2020/12/29 02:27:51;;;;;;;36.83;3.30;;;;;;;0.89;79.78;93330.34;5050453;28;20045;-68
2020/12/29 02:30:19;;;;;;;30.55;2.97;;;;;;;0.84;79.58;93352.03;5050103;28;20428;-68
2020/12/29 02:32:45;;;;;;;21.17;2.25;;;;;;;0.81;79.49;93355.34;5050345;28;20041;-68
2020/12/29 02:35:14;;;;;;;31.10;2.55;;;;;;;0.81;78.87;93350.00;5049898;28;20056;-68
2020/12/29 02:37:40;;;;;;;23.35;2.45;;;;;;;0.81;78.73;93355.34;5050569;28;20041;-68
2020/12/29 02:40:07;;;;;;;24.42;2.40;;;;;;;0.84;78.80;93360.06;5049839;28;20048;-68
2020/12/29 02:42:33;;;;;;;21.48;2.20;;;;;;;0.85;79.07;93357.03;5050363;28;20052;-68
2020/12/29 02:44:59;;;;;;;24.80;2.30;;;;;;;0.85;79.07;93365.06;5052245;28;20045;-67
2020/12/29 02:47:25;;;;;;;26.48;2.60;;;;;;;0.77;78.42;93380.09;5053526;28;20049;-67
2020/12/29 02:49:51;;;;;;;30.10;2.90;;;;;;;0.66;78.53;93376.25;5053942;28;20119;-67
2020/12/29 02:52:17;;;;;;;26.02;2.65;;;;;;;0.62;78.76;93380.69;5053556;28;20076;-69
2020/12/29 02:54:43;;;;;;;29.95;2.40;;;;;;;0.60;78.87;93390.97;5054111;28;20040;-67
2020/12/29 02:57:10;;;;;;;32.15;3.20;;;;;;;0.57;79.07;93410.34;5053350;28;20563;-70
2020/12/29 02:59:36;;;;;;;31.83;2.80;;;;;;;0.28;79.04;93434.50;5053872;28;20044;-68
2020/12/29 03:02:02;;;;;;;21.88;2.38;;;;;;;0.12;79.27;93437.75;5053558;28;20388;-68
2020/12/29 03:04:27;;;;;;;23.02;2.58;;;;;;;0.08;79.44;93458.22;5053953;28;20067;-68
2020/12/29 03:06:53;;;;;;;33.08;2.90;;;;;;;0.04;79.64;93473.34;5053713;28;20496;-68
2020/12/29 03:09:19;;;;;;;23.17;2.40;;;;;;;0.21;79.51;93467.91;5053422;28;20056;-68
2020/12/29 03:11:45;;;;;;;42.45;3.10;;;;;;;0.32;79.40;93456.84;5053512;28;20044;-68
2020/12/29 03:14:13;;;;;;;24.17;2.30;;;;;;;0.44;79.52;93455.03;5053054;28;20439;-68
2020/12/29 03:16:39;;;;;;;30.33;2.72;;;;;;;0.54;79.19;93458.44;5053605;28;20052;-68
2020/12/29 03:19:05;;;;;;;26.45;2.40;;;;;;;0.58;78.91;93460.13;5052994;28;20049;-68
2020/12/29 03:21:31;;;;;;;32.92;2.67;;;;;;;0.64;79.08;93453.47;5053673;28;20123;-68
2020/12/29 03:23:57;;;;;;;21.23;2.22;;;;;;;0.72;79.11;93455.28;5053548;28;20439;-68
2020/12/29 03:26:25;;;;;;;20.75;2.22;;;;;;;0.77;79.24;93451.63;5053011;28;20515;-68
2020/12/29 03:28:51;;;;;;;36.20;2.95;;;;;;;0.81;79.29;93449.09;5053170;28;20202;-68
2020/12/29 03:31:18;;;;;;;24.60;3.20;;;;;;;0.87;78.91;93447.78;5052959;28;20412;-68
2020/12/29 03:33:44;;;;;;;30.00;2.75;;;;;;;0.88;78.97;93452.03;5053005;28;20060;-68
2020/12/29 03:36:11;;;;;;;23.08;2.50;;;;;;;0.87;78.82;93445.09;5052878;28;20106;-68
2020/12/29 03:38:37;;;;;;;35.65;2.67;;;;;;;0.87;79.00;93466.53;5053070;28;20044;-68
2020/12/29 03:41:03;;;;;;;23.48;2.30;;;;;;;0.77;77.74;93473.06;5052747;28;20045;-68
2020/12/29 03:43:29;;;;;;;20.95;1.67;;;;;;;0.80;77.90;93452.88;5053194;28;20048;-68
2020/12/29 03:45:54;;;;;;;20.67;1.65;;;;;;;0.81;77.80;93457.91;5053164;28;20064;-68
2020/12/29 03:48:23;;;;;;;20.70;1.65;;;;;;;0.78;76.86;93458.56;5052316;28;20106;-68
2020/12/29 03:50:49;;;;;;;27.85;1.83;;;;;;;0.82;77.25;93469.41;5052940;28;20041;-68
2020/12/29 03:53:15;;;;;;;33.92;2.08;;;;;;;0.84;77.46;93469.88;5052242;28;20041;-67
2020/12/29 03:55:42;;;;;;;38.78;2.30;;;;;;;0.84;77.58;93461.84;5052214;28;20420;-67
2020/12/29 03:58:08;;;;;;;37.58;2.17;;;;;;;0.85;77.90;93461.50;5052213;28;20041;-67
2020/12/29 04:00:36;;;;;;;19.27;1.77;;;;;;;0.84;78.17;93457.28;5052935;28;20049;-70
2020/12/29 04:03:02;;;;;;;35.65;2.10;;;;;;;0.82;78.22;93464.06;5052394;28;20528;-69
2020/12/29 04:05:30;;;;;;;25.02;1.80;;;;;;;0.80;78.30;93474.31;5052740;28;20045;-68
2020/12/29 04:07:56;;;;;;;22.58;1.52;;;;;;;0.78;78.34;93475.44;5052631;28;20041;-67
2020/12/29 04:10:22;;;;;;;29.13;1.75;;;;;;;0.75;77.99;93469.94;5052107;28;20484;-68
2020/12/29 04:12:48;;;;;;;19.13;1.60;;;;;;;0.74;78.07;93471.84;5052717;28;20033;-67
2020/12/29 04:15:14;;;;;;;28.98;1.70;;;;;;;0.72;78.03;93470.56;5052184;28;20056;-67
2020/12/29 04:17:42;;;;;;;44.67;2.40;;;;;;;0.70;78.22;93473.59;5052372;28;20471;-67
2020/12/29 04:20:09;;;;;;;22.48;1.58;;;;;;;0.67;78.26;93489.50;5052015;28;20048;-67
2020/12/29 04:22:40;;;;;;;26.73;1.75;;;;;;;0.63;78.37;93489.41;5052401;28;20070;-68
2020/12/29 04:25:08;;;;;;;15.05;1.30;;;;;;;0.63;77.68;93505.47;5051932;28;20044;-67
2020/12/29 04:27:34;;;;;;;28.25;1.88;;;;;;;0.55;76.92;93511.66;5052200;28;20037;-67
2020/12/29 04:30:00;;;;;;;18.55;1.48;;;;;;;0.51;76.98;93519.53;5052263;28;20419;-68
2020/12/29 04:32:26;;;;;;;20.90;1.70;;;;;;;0.53;77.51;93505.84;5051875;28;20059;-67
2020/12/29 04:34:52;;;;;;;20.67;1.75;;;;;;;0.55;77.75;93495.59;5052002;28;20049;-70
2020/12/29 04:37:18;;;;;;;27.25;1.98;;;;;;;0.54;77.92;93496.69;5051629;28;20602;-67
2020/12/29 04:39:46;;;;;;;28.95;2.10;;;;;;;0.52;78.36;93505.06;5051924;28;20091;-69
2020/12/29 04:42:13;;;;;;;24.35;1.80;;;;;;;0.50;77.86;93509.16;5051572;28;20049;-70
2020/12/29 04:44:40;;;;;;;16.55;1.45;;;;;;;0.43;77.60;93516.91;5052178;28;20044;-70
2020/12/29 04:47:07;;;;;;;11.13;2.00;;;;;;;0.41;77.72;93513.75;5051474;28;20060;-70
2020/12/29 04:49:33;;;;;;;31.83;2.17;;;;;;;0.41;78.01;93527.16;5051551;28;20099;-70
2020/12/29 04:52:03;;;;;;;30.85;2.22;;;;;;;0.45;78.35;93536.13;5051854;28;20045;-69
2020/12/29 04:54:32;;;;;;;19.38;2.08;;;;;;;0.49;78.07;93534.38;5051548;28;20033;-70
2020/12/29 04:57:01;;;;;;;20.27;1.75;;;;;;;0.54;78.00;93536.06;5051720;28;20045;-69
2020/12/29 04:59:28;;;;;;;23.42;1.83;;;;;;;0.56;77.68;93548.03;5051399;28;20041;-69
2020/12/29 05:01:54;;;;;;;23.35;2.00;;;;;;;0.55;77.72;93549.13;5051699;28;20060;-69
2020/12/29 05:04:21;;;;;;;30.23;2.08;;;;;;;0.50;78.00;93558.13;5051108;28;20671;-69
2020/12/29 05:06:48;;;;;;;25.42;2.38;;;;;;;0.46;78.35;93559.09;5051441;28;20049;-70
2020/12/29 05:09:14;;;;;;;22.92;1.85;;;;;;;0.47;78.47;93566.00;5051057;28;20044;-70
2020/12/29 05:11:40;;;;;;;36.03;2.60;;;;;;;0.47;78.72;93566.00;5051225;28;20047;-69
2020/12/29 05:14:07;;;;;;;25.17;1.92;;;;;;;0.49;78.93;93563.81;5051177;28;20041;-68
2020/12/29 05:16:36;;;;;;;32.10;2.58;;;;;;;0.52;79.07;93563.16;5051391;28;20049;-69
2020/12/29 05:19:06;;;;;;;11.52;1.90;;;;;;;0.54;79.15;93565.53;5050628;28;20049;-70
2020/12/29 05:21:34;;;;;;;21.02;1.98;;;;;;;0.53;79.15;93575.47;5051266;28;20053;-69
2020/12/29 05:24:07;;;;;;;25.73;2.08;;;;;;;0.47;78.47;93595.47;5051280;28;20052;-69
2020/12/29 05:26:35;;;;;;;21.60;1.70;;;;;;;0.46;78.71;93601.94;5050473;28;20049;-70
2020/12/29 05:29:02;;;;;;;29.63;2.33;;;;;;;0.50;78.84;93608.22;5051021;28;20075;-70
2020/12/29 05:31:30;;;;;;;30.17;2.25;;;;;;;0.52;78.73;93600.63;5050840;28;20450;-68
2020/12/29 05:33:56;;;;;;;26.55;2.22;;;;;;;0.55;78.78;93604.59;5050847;28;20044;-68
2020/12/29 05:36:22;;;;;;;30.58;2.33;;;;;;;0.56;78.98;93612.28;5050606;28;20045;-67
2020/12/29 05:38:49;;;;;;;29.92;1.98;;;;;;;0.52;78.65;93630.09;5051203;28;20041;-67
2020/12/29 05:41:22;;;;;;;19.00;1.80;;;;;;;0.54;78.70;93625.22;5050554;28;20397;-67
2020/12/29 05:44:00;;;;;;;25.27;1.88;;;;;;;0.56;78.86;93631.03;5051085;28;20052;-68
2020/12/29 05:46:29;;;;;;;23.40;1.65;;;;;;;0.57;78.84;93645.97;5050883;28;20535;-68
2020/12/29 05:48:55;;;;;;;19.63;2.25;;;;;;;0.58;78.89;93642.22;5049624;28;20052;-68
2020/12/29 05:51:22;;;;;;;24.92;3.17;;;;;;;0.57;78.68;93635.28;5050542;28;20045;-68
2020/12/29 05:53:48;;;;;;;32.33;3.83;;;;;;;0.56;78.78;93636.38;5051007;28;20045;-67
2020/12/29 05:56:14;;;;;;;22.55;2.30;;;;;;;0.57;78.98;93635.28;5050400;28;20515;-68
2020/12/29 05:58:41;;;;;;;39.80;2.78;;;;;;;0.59;79.23;93648.34;5050713;28;20093;-68
2020/12/29 06:01:08;;;;;;;29.20;2.33;;;;;;;0.59;79.12;93643.78;5050317;28;20045;-68
2020/12/29 06:03:36;;;;;;;26.60;1.83;;;;;;;0.60;78.98;93645.34;5050615;28;20050;-68
2020/12/29 06:06:07;;;;;;;20.33;1.58;;;;;;;0.60;78.78;93644.56;5050362;28;20484;-68
2020/12/29 06:08:36;;;;;;;28.50;2.00;;;;;;;0.59;78.35;93630.41;5050698;28;20095;-68
2020/12/29 06:11:05;;;;;;;23.13;1.83;;;;;;;0.63;78.52;93639.38;5050223;28;20484;-68
2020/12/29 06:13:37;;;;;;;21.25;1.52;;;;;;;0.67;78.60;93658.22;5050539;28;20037;-68
2020/12/29 06:16:04;;;;;;;20.50;1.50;;;;;;;0.71;78.29;93662.63;5050461;28;20132;-69
2020/12/29 06:18:34;;;;;;;19.05;1.75;;;;;;;0.69;78.30;93650.69;5050715;28;20053;-68
2020/12/29 06:21:04;;;;;;;30.98;2.05;;;;;;;0.66;78.15;93648.63;5054341;28;20471;-68
2020/12/29 06:23:38;;;;;;;29.08;1.88;;;;;;;0.67;78.27;93661.69;5054392;28;20167;-68
2020/12/29 06:26:06;;;;;;;28.92;2.00;;;;;;;0.64;78.22;93665.03;5054267;28;20056;-68
2020/12/29 06:28:42;;;;;;;25.05;1.88;;;;;;;0.63;78.56;93666.16;5054546;28;20040;-68
2020/12/29 06:31:10;;;;;;;27.05;2.05;;;;;;;0.63;78.23;93676.84;5054135;28;20045;-68
2020/12/29 06:33:38;;;;;;;35.35;2.42;;;;;;;0.60;78.09;93676.69;5054182;28;20400;-68
2020/12/29 06:36:10;;;;;;;34.72;2.30;;;;;;;0.59;78.12;93673.25;5053955;28;20064;-68
2020/12/29 06:38:39;;;;;;;27.15;1.90;;;;;;;0.58;77.75;93669.00;5054488;28;20052;-68
2020/12/29 06:41:08;;;;;;;21.88;1.88;;;;;;;0.57;77.91;93675.44;5053834;28;20064;-67
2020/12/29 06:43:34;;;;;;;24.00;2.00;;;;;;;0.58;77.86;93695.78;5054369;28;20143;-67
2020/12/29 06:46:10;;;;;;;21.13;1.65;;;;;;;0.59;77.47;93712.63;5054373;28;20048;-68
2020/12/29 06:48:36;;;;;;;23.60;1.92;;;;;;;0.13;77.06;93706.09;5053812;28;20068;-68
2020/12/29 06:51:09;;;;;;;19.15;1.73;;;;;;;0.24;78.01;93697.41;5053936;28;20048;-68
2020/12/29 06:53:35;;;;;;;28.33;1.95;;;;;;;0.29;78.19;93709.84;5054202;28;20053;-68
2020/12/29 06:56:01;;;;;;;22.27;1.95;;;;;;;0.30;78.59;93706.06;5053622;28;20091;-68
2020/12/29 06:58:31;;;;;;;31.88;2.42;;;;;;;0.30;78.49;93721.34;5054149;28;20048;-68
2020/12/29 07:01:18;;;;;;;31.30;2.20;;;;;;;0.29;78.44;93725.13;5053817;28;20492;-68
2020/12/29 07:03:44;;;;;;;27.08;2.20;;;;;;;0.27;78.31;93727.34;5053645;28;20052;-67
2020/12/29 07:06:11;;;;;;;21.23;1.77;;;;;;;0.23;78.37;93738.66;5053488;28;20099;-67
2020/12/29 07:08:38;;;;;;;25.05;1.88;;;;;;;0.24;78.41;93750.16;5053769;28;20037;-67
2020/12/29 07:11:15;;;;;;;23.50;2.17;;;;;;;0.20;77.99;93750.00;5053350;28;20106;-68
2020/12/29 07:13:41;;;;;;;36.55;2.47;;;;;;;0.19;77.32;93753.78;5053613;28;20646;-68
2020/12/29 07:16:12;;;;;;;21.95;2.45;;;;;;;0.17;76.19;93765.91;5053212;28;20044;-68
2020/12/29 07:18:43;;;;;;;32.53;2.25;;;;;;;0.20;76.57;93760.69;5053584;28;20049;-68
2020/12/29 07:21:22;;;;;;;22.13;1.77;;;;;;;0.23;77.03;93776.13;5052440;28;20424;-68
2020/12/29 07:23:51;;;;;;;34.05;2.50;;;;;;;0.25;77.07;93779.28;5053213;28;20041;-68
2020/12/29 07:26:18;;;;;;;26.90;2.00;;;;;;;0.23;76.74;93773.47;5053070;28;20500;-67
2020/12/29 07:28:45;;;;;;;35.25;2.08;;;;;;;0.25;77.14;93771.25;5053402;28;20045;-67
2020/12/29 07:31:14;;;;;;;30.52;2.25;;;;;;;0.21;76.39;93782.91;5051861;28;20049;-67
2020/12/29 07:33:49;;;;;;;26.33;2.25;;;;;;;0.14;76.10;93786.03;5053151;28;20044;-68
2020/12/29 07:36:17;;;;;;;18.15;2.33;;;;;;;0.21;76.67;93794.41;5053064;28;20103;-68
2020/12/29 07:38:47;;;;;;;29.92;2.40;;;;;;;0.21;76.79;93815.81;5053235;28;20075;-68
2020/12/29 07:41:14;;;;;;;15.32;1.73;;;;;;;0.23;76.91;93802.91;5052781;28;20458;-68
2020/12/29 07:43:40;;;;;;;34.80;2.45;;;;;;;0.22;76.79;93825.41;5053235;28;20106;-68
2020/12/29 07:46:06;;;;;;;32.65;4.75;;;;;;;0.25;76.55;93824.00;5052841;28;20099;-68
2020/12/29 07:48:32;;;;;;;34.53;4.55;;;;;;;0.27;76.68;93829.03;5052820;28;20044;-68
2020/12/29 07:50:59;;;;;;;25.15;2.13;;;;;;;0.30;76.14;93829.19;5053145;28;20056;-67
2020/12/29 07:53:25;;;;;;;22.40;1.90;;;;;;;0.30;76.28;93833.75;5052495;28;20041;-68
2020/12/29 07:55:53;;;;;;;35.00;2.63;;;;;;;0.33;76.74;93827.78;5052975;28;20121;-68
2020/12/29 07:58:19;;;;;;;22.77;2.10;;;;;;;0.39;76.71;93834.56;5052556;28;20045;-68
2020/12/29 08:00:45;;;;;;;29.80;2.22;;;;;;;0.46;76.66;93829.50;5052787;28;20041;-68
2020/12/29 08:03:12;;;;;;;17.15;1.85;;;;;;;0.54;76.30;93839.44;5052373;28;20044;-67
2020/12/29 08:05:39;;;;;;;38.35;2.55;;;;;;;0.59;75.72;93839.28;5052765;28;20045;-68
2020/12/29 08:08:07;;;;;;;21.70;2.05;;;;;;;0.64;75.70;93849.81;5052401;28;20048;-68
2020/12/29 08:10:34;;;;;;;39.28;2.53;;;;;;;0.77;75.71;93853.41;5052551;28;20480;-67
2020/12/29 08:13:03;;;;;;;23.10;2.15;;;;;;;1.03;74.84;93851.47;5052560;28;20044;-68
2020/12/29 08:15:30;;;;;;;35.05;2.70;;;;;;;1.44;73.51;93873.47;5052281;28;20041;-68
2020/12/29 08:18:05;;;;;;;41.97;2.47;;;;;;;2.01;71.51;93878.44;5052302;28;20528;-68
2020/12/29 08:20:31;;;;;;;16.52;1.60;;;;;;;2.48;70.16;93878.28;5052283;28;20072;-68
2020/12/29 08:23:03;;;;;;;35.45;2.28;;;;;;;2.65;69.13;93878.16;5052366;28;20103;-68
2020/12/29 08:25:30;;;;;;;22.80;1.80;;;;;;;2.74;67.44;93884.25;5051781;28;20037;-68
2020/12/29 08:27:56;;;;;;;25.20;2.13;;;;;;;2.85;67.97;93885.44;5052193;28;20056;-68
2020/12/29 08:30:25;;;;;;;20.70;1.88;;;;;;;3.00;67.18;93891.31;5051771;28;20476;-68
2020/12/29 08:32:53;;;;;;;32.53;2.20;;;;;;;3.08;65.28;93893.94;5051995;28;20041;-68
2020/12/29 08:35:19;;;;;;;25.20;1.98;;;;;;;3.20;65.64;93893.19;5051714;28;20049;-68
2020/12/29 08:37:57;;;;;;;32.65;2.20;;;;;;;3.28;65.65;93902.28;5052118;28;20045;-68
2020/12/29 08:40:25;;;;;;;22.73;1.85;;;;;;;3.32;65.14;93909.34;5033836;28;20090;-68
2020/12/29 08:42:52;;;;;;;33.72;2.10;;;;;;;3.34;63.80;93912.53;5051572;28;20051;-68
2020/12/29 08:45:27;;;;;;;20.75;1.83;;;;;;;3.33;62.96;93927.06;5051414;28;20041;-68
2020/12/29 08:47:55;;;;;;;15.82;1.60;;;;;;;3.28;63.21;93940.72;5051753;28;20099;-68
2020/12/29 08:50:23;;;;;;;28.42;2.10;;;;;;;3.27;63.07;93931.09;5051429;28;20071;-67
2020/12/29 08:52:53;;;;;;;36.97;2.45;;;;;;;3.30;63.02;93948.47;5051341;28;20053;-67
2020/12/29 08:55:30;;;;;;;33.95;2.15;;;;;;;3.32;63.05;93947.00;5051031;28;20048;-68
2020/12/29 08:57:57;;;;;;;34.17;2.30;;;;;;;3.36;63.76;93950.63;5050929;28;20048;-66
2020/12/29 09:00:25;;;;;;;53.17;2.88;;;;;;;3.34;61.65;93943.97;5029802;28;20102;-66
2020/12/29 09:02:52;;;;;;;66.72;3.35;;;;;;;3.47;63.22;93939.44;5048174;28;20056;-66
2020/12/29 09:05:22;;;;;;;59.78;3.25;;;;;;;3.49;61.54;93945.28;5047430;28;20049;-66
2020/12/29 09:07:48;;;;;;;54.55;3.20;;;;;;;3.60;63.84;93952.63;5048340;28;20044;-66
2020/12/29 09:10:15;;;;;;;86.85;4.38;;;;;;;3.60;62.76;93952.63;5046996;28;20053;-67
2020/12/29 09:12:42;;;;;;;65.93;3.65;;;;;;;3.57;61.88;93960.56;5027912;28;20053;-67
2020/12/29 09:15:10;;;;;;;78.72;6.05;;;;;;;3.60;63.27;93968.75;5040216;28;20045;-67
2020/12/29 09:17:37;;;;;;;63.33;3.55;;;;;;;3.69;63.18;93974.03;5048023;28;20052;-67
2020/12/29 09:20:22;;;;;;;67.45;3.25;;;;;;;3.80;64.08;93980.56;5047225;28;20044;-67
2020/12/29 09:22:53;;;;;;;64.32;3.13;;;;;;;3.93;64.01;93986.78;5047943;28;20531;-67
2020/12/29 09:25:31;;;;;;;76.85;3.47;;;;;;;4.12;63.08;93987.06;5047344;28;20136;-67
2020/12/29 09:28:14;;;;;;;59.03;3.13;;;;;;;4.29;62.77;93986.06;5047639;28;20059;-66
2020/12/29 09:30:42;;;;;;;57.72;2.80;;;;;;;4.46;61.76;93987.75;5047839;28;20549;-66
2020/12/29 09:33:08;;;;;;;54.42;2.90;;;;;;;4.59;58.58;93993.91;5046997;28;20048;-66
2020/12/29 09:35:35;;;;;;;57.65;2.72;;;;;;;4.67;58.42;94001.91;5047379;28;20052;-67
2020/12/29 09:38:01;;;;;;;52.10;2.45;;;;;;;4.81;57.12;94015.03;5047932;28;20041;-67
2020/12/29 09:40:28;;;;;;;54.25;2.58;;;;;;;4.93;58.44;94015.00;5047483;28;20175;-67
2020/12/29 09:42:54;;;;;;;35.85;2.13;;;;;;;5.09;58.13;94020.50;5047706;28;20053;-67
2020/12/29 09:45:22;;;;;;;45.13;2.55;;;;;;;5.16;58.77;94025.31;5046985;28;20052;-67
2020/12/29 09:47:49;;;;;;;75.10;3.70;;;;;;;5.29;60.54;94023.41;5047737;28;20095;-67
2020/12/29 09:50:16;;;;;;;64.93;3.50;;;;;;;5.31;57.84;94027.31;5047163;28;20049;-67
2020/12/29 09:52:43;;;;;;;70.63;3.42;;;;;;;5.38;59.59;94019.44;5047346;28;20127;-67
2020/12/29 09:55:09;;;;;;;44.17;2.67;;;;;;;5.35;59.88;94030.91;5046295;28;20740;-67
2020/12/29 09:57:35;;;;;;;46.95;2.83;;;;;;;5.31;60.44;94027.31;5047192;28;20056;-67
2020/12/29 10:00:01;;;;;;;59.78;2.95;;;;;;;5.19;57.61;94019.25;5047372;28;20072;-67
2020/12/29 10:02:27;;;;;;;32.67;1.80;;;;;;;5.27;58.17;94031.81;5047294;28;20091;-67
2020/12/29 10:04:53;;;;;;;59.80;2.72;;;;;;;5.29;56.78;94023.41;5047380;28;20500;-67
2020/12/29 10:07:19;;;;;;;57.17;2.85;;;;;;;5.28;54.92;94017.22;5044709;28;20136;-67
2020/12/29 10:09:46;;;;;;;52.92;2.38;;;;;;;5.25;54.58;94036.78;5046757;28;20780;-68
2020/12/29 10:12:12;;;;;;;50.33;2.22;;;;;;;5.15;54.60;94034.53;5047067;28;20045;-66
2020/12/29 10:14:38;;;;;;;56.55;2.55;;;;;;;5.00;54.59;94027.13;5047373;28;20075;-67
2020/12/29 10:17:04;;;;;;;55.55;2.60;;;;;;;5.09;54.91;94030.50;5046728;28;20385;-67
2020/12/29 10:19:30;;;;;;;53.80;2.38;;;;;;;5.10;54.81;94035.56;5047154;28;20147;-67
2020/12/29 10:21:56;;;;;;;61.97;2.70;;;;;;;5.01;54.51;94040.28;5047324;28;20041;-67
2020/12/29 10:24:23;;;;;;;51.42;2.47;;;;;;;5.04;54.97;94042.31;5046917;28;20052;-67
2020/12/29 10:26:51;;;;;;;72.47;3.15;;;;;;;5.05;55.63;94041.19;5046900;28;20048;-66
2020/12/29 10:29:17;;;;;;;69.50;3.13;;;;;;;5.31;54.37;94035.41;5046515;28;20045;-67
2020/12/29 10:31:43;;;;;;;77.95;3.35;;;;;;;5.56;54.47;94038.06;5046361;28;20103;-67
2020/12/29 10:34:10;;;;;;;90.50;3.83;;;;;;;5.45;54.02;94035.03;5046495;28;20044;-67
2020/12/29 10:36:37;;;;;;;63.83;2.90;;;;;;;5.45;53.95;94032.34;5046342;28;20048;-67
2020/12/29 10:39:04;;;;;;;69.47;3.05;;;;;;;5.54;54.00;94034.91;5046215;28;20115;-67
2020/12/29 10:41:30;;;;;;;52.28;2.38;;;;;;;5.68;54.26;94038.00;5046821;28;20045;-67
2020/12/29 10:43:57;;;;;;;50.75;2.42;;;;;;;5.87;54.54;94031.97;5046567;28;20075;-67
2020/12/29 10:46:24;;;;;;;34.85;1.80;;;;;;;5.94;52.91;94043.78;5046589;28;20049;-67
2020/12/29 10:48:51;;;;;;;79.88;3.63;;;;;;;5.87;53.83;94040.84;5046638;28;20045;-67
2020/12/29 10:51:18;;;;;;;54.92;2.63;;;;;;;5.75;54.02;94041.69;5046373;28;20044;-67
2020/12/29 10:53:44;;;;;;;91.75;3.85;;;;;;;5.81;54.84;94036.06;5046792;28;20052;-66
2020/12/29 10:56:10;;;;;;;42.55;2.15;;;;;;;5.86;54.81;94047.41;5046366;28;20053;-66
2020/12/29 10:58:37;;;;;;;73.55;3.25;;;;;;;5.90;54.93;94051.00;5046583;28;20037;-67
2020/12/29 11:01:04;;;;;;;59.38;2.90;;;;;;;5.90;54.79;94042.88;5046410;28;20110;-67
2020/12/29 11:03:30;;;;;;;60.72;2.83;;;;;;;6.15;54.48;94053.59;5046603;28;20577;-66
2020/12/29 11:05:56;;;;;;;70.55;3.20;;;;;;;6.36;54.49;94059.53;5048453;28;20057;-66
2020/12/29 11:08:22;;;;;;;64.20;2.88;;;;;;;6.30;55.44;94060.94;5049618;28;20053;-66
2020/12/29 11:10:49;;;;;;;84.40;3.88;;;;;;;6.39;54.61;94056.16;5048929;28;20052;-67
2020/12/29 11:13:15;;;;;;;67.32;3.00;;;;;;;6.42;54.81;94058.19;5048706;28;20045;-67
2020/12/29 11:15:41;;;;;;;63.85;2.92;;;;;;;6.01;54.75;94068.28;5050100;28;20053;-67
2020/12/29 11:18:08;;;;;;;50.90;2.53;;;;;;;5.93;55.51;94071.91;5049514;28;20064;-67
2020/12/29 11:20:34;;;;;;;73.13;3.13;;;;;;;5.74;56.01;94066.31;5050112;28;20102;-66
2020/12/29 11:23:00;;;;;;;59.83;2.88;;;;;;;5.73;56.52;94072.84;5050222;28;20045;-66
2020/12/29 11:25:26;;;;;;;53.42;2.60;;;;;;;5.60;56.88;94074.03;5049402;28;20146;-66
2020/12/29 11:27:52;;;;;;;54.60;2.72;;;;;;;5.60;56.61;94071.34;5050097;28;20516;-66
2020/12/29 11:30:18;;;;;;;65.90;2.90;;;;;;;5.63;57.38;94084.13;5049549;28;20132;-66
2020/12/29 11:32:44;;;;;;;48.83;2.45;;;;;;;5.71;56.80;94091.31;5049912;28;20049;-66
2020/12/29 11:35:10;;;;;;;67.35;2.92;;;;;;;5.80;56.93;94092.00;5049364;28;20420;-66